Lyntupy, Belarus
Current Conditions -  °F | °C
As of 7:50 AM on Saturday 20 Dec 2014 (Local Time) from EYVI Reporting Station
Broken Clouds Broken Clouds  
Wind Chill: 28°   Ceiling: 1500
Heat Index: 37°   Visibility: 6mi
Dew Point: 34°   Wind: 16mph
Humidity: 87%   Direction: 250°WSW
Pressure: 29.53"   Gusts: NA
Location:  55.05°N, 26.31°E
Report Text: EYVI 200550Z 25014KT 220V280 9999 BKN015 03/01 Q1000 R20/2///95 NOSIG
Loading
Personal Weather Stations






























Interactive Weather Map New forecast layout! Learn more

10-Day Weather Forecast

Advertisements
Track Severe Weather on mobile